sensor_id;sensor_type;location;lat;lon;timestamp;temperature;humidity
12254;DHT22;6189;52.526;13.390;2022-10-16T00:02:15;16.30;99.90
12254;DHT22;6189;52.526;13.390;2022-10-16T00:05:00;16.30;99.90
12254;DHT22;6189;52.526;13.390;2022-10-16T00:07:46;16.30;99.90
12254;DHT22;6189;52.526;13.390;2022-10-16T00:10:32;16.30;99.90
12254;DHT22;6189;52.526;13.390;2022-10-16T00:13:18;16.30;99.90
12254;DHT22;6189;52.526;13.390;2022-10-16T00:16:05;16.30;99.90
12254;DHT22;6189;52.526;13.390;2022-10-16T00:18:50;16.40;99.90
12254;DHT22;6189;52.526;13.390;2022-10-16T00:21:36;16.40;99.90
12254;DHT22;6189;52.526;13.390;2022-10-16T00:24:22;16.40;99.90
12254;DHT22;6189;52.526;13.390;2022-10-16T00:27:08;16.40;99.90
12254;DHT22;6189;52.526;13.390;2022-10-16T00:29:54;16.40;99.90
12254;DHT22;6189;52.526;13.390;2022-10-16T00:32:40;16.40;99.90
12254;DHT22;6189;52.526;13.390;2022-10-16T00:35:25;16.40;99.90
12254;DHT22;6189;52.526;13.390;2022-10-16T00:38:11;16.40;99.90
12254;DHT22;6189;52.526;13.390;2022-10-16T00:40:56;16.50;99.90
12254;DHT22;6189;52.526;13.390;2022-10-16T00:43:45;16.50;99.90
12254;DHT22;6189;52.526;13.390;2022-10-16T00:47:05;16.50;99.90
12254;DHT22;6189;52.526;13.390;2022-10-16T00:49:55;16.40;99.90
12254;DHT22;6189;52.526;13.390;2022-10-16T00:52:46;16.40;99.90
12254;DHT22;6189;52.526;13.390;2022-10-16T00:55:32;16.50;99.90
12254;DHT22;6189;52.526;13.390;2022-10-16T00:58:17;16.50;99.90
12254;DHT22;6189;52.526;13.390;2022-10-16T01:01:04;16.50;99.90
12254;DHT22;6189;52.526;13.390;2022-10-16T01:03:50;16.50;99.90
12254;DHT22;6189;52.526;13.390;2022-10-16T01:06:40;16.50;99.90
12254;DHT22;6189;52.526;13.390;2022-10-16T01:09:34;16.50;99.90
12254;DHT22;6189;52.526;13.390;2022-10-16T01:12:26;16.50;99.90
12254;DHT22;6189;52.526;13.390;2022-10-16T01:15:18;16.50;99.90
12254;DHT22;6189;52.526;13.390;2022-10-16T01:18:11;16.50;99.90
12254;DHT22;6189;52.526;13.390;2022-10-16T01:21:02;16.50;99.90
12254;DHT22;6189;52.526;13.390;2022-10-16T01:23:51;16.50;99.90
12254;DHT22;6189;52.526;13.390;2022-10-16T01:27:08;16.50;99.90
12254;DHT22;6189;52.526;13.390;2022-10-16T01:29:58;16.50;99.90
12254;DHT22;6189;52.526;13.390;2022-10-16T01:32:49;16.50;99.90
12254;DHT22;6189;52.526;13.390;2022-10-16T01:35:38;16.50;99.90
12254;DHT22;6189;52.526;13.390;2022-10-16T01:38:29;16.50;99.90
12254;DHT22;6189;52.526;13.390;2022-10-16T01:41:18;16.50;99.90
12254;DHT22;6189;52.526;13.390;2022-10-16T01:44:09;16.50;99.90
12254;DHT22;6189;52.526;13.390;2022-10-16T01:46:56;16.50;99.90
12254;DHT22;6189;52.526;13.390;2022-10-16T01:49:43;16.40;99.90
12254;DHT22;6189;52.526;13.390;2022-10-16T01:52:32;16.40;99.90
12254;DHT22;6189;52.526;13.390;2022-10-16T01:55:22;16.40;99.90
12254;DHT22;6189;52.526;13.390;2022-10-16T01:58:09;16.40;99.90
12254;DHT22;6189;52.526;13.390;2022-10-16T02:00:57;16.40;99.90
12254;DHT22;6189;52.526;13.390;2022-10-16T02:03:43;16.40;99.90
12254;DHT22;6189;52.526;13.390;2022-10-16T02:06:30;16.40;99.90
12254;DHT22;6189;52.526;13.390;2022-10-16T02:09:15;16.40;99.90
12254;DHT22;6189;52.526;13.390;2022-10-16T02:12:09;16.40;99.90
12254;DHT22;6189;52.526;13.390;2022-10-16T02:14:57;16.40;99.90
12254;DHT22;6189;52.526;13.390;2022-10-16T02:17:44;16.40;99.90
12254;DHT22;6189;52.526;13.390;2022-10-16T02:20:34;16.40;99.90
12254;DHT22;6189;52.526;13.390;2022-10-16T02:23:27;16.40;99.90
12254;DHT22;6189;52.526;13.390;2022-10-16T02:26:20;16.40;99.90
12254;DHT22;6189;52.526;13.390;2022-10-16T02:29:12;16.40;99.90
12254;DHT22;6189;52.526;13.390;2022-10-16T02:32:01;16.40;99.90
12254;DHT22;6189;52.526;13.390;2022-10-16T02:34:49;16.40;99.90
12254;DHT22;6189;52.526;13.390;2022-10-16T02:37:35;16.40;99.90
12254;DHT22;6189;52.526;13.390;2022-10-16T02:40:22;16.40;99.90
12254;DHT22;6189;52.526;13.390;2022-10-16T02:43:08;16.40;99.90
12254;DHT22;6189;52.526;13.390;2022-10-16T02:45:53;16.40;99.90
12254;DHT22;6189;52.526;13.390;2022-10-16T02:48:39;16.40;99.90
12254;DHT22;6189;52.526;13.390;2022-10-16T02:51:25;16.40;99.90
12254;DHT22;6189;52.526;13.390;2022-10-16T02:54:11;16.40;99.90
12254;DHT22;6189;52.526;13.390;2022-10-16T02:56:57;16.50;99.90
12254;DHT22;6189;52.526;13.390;2022-10-16T02:59:42;16.50;99.90
12254;DHT22;6189;52.526;13.390;2022-10-16T03:02:27;16.40;99.90
12254;DHT22;6189;52.526;13.390;2022-10-16T03:05:13;16.40;99.90
12254;DHT22;6189;52.526;13.390;2022-10-16T03:08:00;16.40;99.90
12254;DHT22;6189;52.526;13.390;2022-10-16T03:10:46;16.40;99.90
12254;DHT22;6189;52.526;13.390;2022-10-16T03:13:31;16.40;99.90
12254;DHT22;6189;52.526;13.390;2022-10-16T03:16:16;16.40;99.90
12254;DHT22;6189;52.526;13.390;2022-10-16T03:19:02;16.30;99.90
12254;DHT22;6189;52.526;13.390;2022-10-16T03:21:47;16.40;99.90
12254;DHT22;6189;52.526;13.390;2022-10-16T03:24:34;16.30;99.90
12254;DHT22;6189;52.526;13.390;2022-10-16T03:27:19;16.30;99.90
12254;DHT22;6189;52.526;13.390;2022-10-16T03:30:06;16.30;99.90
12254;DHT22;6189;52.526;13.390;2022-10-16T03:32:51;16.30;99.90
12254;DHT22;6189;52.526;13.390;2022-10-16T03:35:38;16.30;99.90
12254;DHT22;6189;52.526;13.390;2022-10-16T03:38:23;16.30;99.90
12254;DHT22;6189;52.526;13.390;2022-10-16T03:41:10;16.20;99.90
12254;DHT22;6189;52.526;13.390;2022-10-16T03:43:55;16.20;99.90
12254;DHT22;6189;52.526;13.390;2022-10-16T03:46:41;16.20;99.90
12254;DHT22;6189;52.526;13.390;2022-10-16T03:49:26;16.20;99.90
12254;DHT22;6189;52.526;13.390;2022-10-16T03:52:11;16.20;99.90
12254;DHT22;6189;52.526;13.390;2022-10-16T03:54:57;16.20;99.90
12254;DHT22;6189;52.526;13.390;2022-10-16T03:57:44;16.10;99.90
12254;DHT22;6189;52.526;13.390;2022-10-16T04:00:29;16.20;99.90
12254;DHT22;6189;52.526;13.390;2022-10-16T04:03:15;16.10;99.90
12254;DHT22;6189;52.526;13.390;2022-10-16T04:06:01;16.10;99.90
12254;DHT22;6189;52.526;13.390;2022-10-16T04:08:46;16.20;99.90
12254;DHT22;6189;52.526;13.390;2022-10-16T04:11:32;16.20;99.90
12254;DHT22;6189;52.526;13.390;2022-10-16T04:14:18;16.20;99.90
12254;DHT22;6189;52.526;13.390;2022-10-16T04:17:04;16.10;99.90
12254;DHT22;6189;52.526;13.390;2022-10-16T04:19:49;16.10;99.90
12254;DHT22;6189;52.526;13.390;2022-10-16T04:22:35;16.10;99.90
12254;DHT22;6189;52.526;13.390;2022-10-16T04:25:20;16.10;99.90
12254;DHT22;6189;52.526;13.390;2022-10-16T04:28:05;16.10;99.90
12254;DHT22;6189;52.526;13.390;2022-10-16T04:30:52;16.00;99.90
12254;DHT22;6189;52.526;13.390;2022-10-16T04:33:38;16.10;99.90
12254;DHT22;6189;52.526;13.390;2022-10-16T04:36:23;16.10;99.90
12254;DHT22;6189;52.526;13.390;2022-10-16T04:39:09;16.10;99.90
12254;DHT22;6189;52.526;13.390;2022-10-16T04:41:54;16.00;99.90
12254;DHT22;6189;52.526;13.390;2022-10-16T04:44:40;16.00;99.90
12254;DHT22;6189;52.526;13.390;2022-10-16T04:47:27;16.00;99.90
12254;DHT22;6189;52.526;13.390;2022-10-16T04:50:12;16.00;99.90
12254;DHT22;6189;52.526;13.390;2022-10-16T04:52:57;16.10;99.90
12254;DHT22;6189;52.526;13.390;2022-10-16T04:55:43;16.10;99.90
12254;DHT22;6189;52.526;13.390;2022-10-16T04:58:29;16.00;99.90
12254;DHT22;6189;52.526;13.390;2022-10-16T05:01:14;16.00;99.90
12254;DHT22;6189;52.526;13.390;2022-10-16T05:04:01;16.00;99.90
12254;DHT22;6189;52.526;13.390;2022-10-16T05:06:47;16.00;99.90
12254;DHT22;6189;52.526;13.390;2022-10-16T05:09:33;16.00;99.90
12254;DHT22;6189;52.526;13.390;2022-10-16T05:12:18;16.00;99.90
12254;DHT22;6189;52.526;13.390;2022-10-16T05:15:05;15.90;99.90
12254;DHT22;6189;52.526;13.390;2022-10-16T05:17:52;15.90;99.90
12254;DHT22;6189;52.526;13.390;2022-10-16T05:20:40;15.90;99.90
12254;DHT22;6189;52.526;13.390;2022-10-16T05:23:25;15.80;99.90
12254;DHT22;6189;52.526;13.390;2022-10-16T05:26:11;15.80;99.90
12254;DHT22;6189;52.526;13.390;2022-10-16T05:28:56;15.80;99.90
12254;DHT22;6189;52.526;13.390;2022-10-16T05:31:42;15.90;99.90
12254;DHT22;6189;52.526;13.390;2022-10-16T05:34:27;15.90;99.90
12254;DHT22;6189;52.526;13.390;2022-10-16T05:37:14;15.80;99.90
12254;DHT22;6189;52.526;13.390;2022-10-16T05:40:00;15.80;99.90
12254;DHT22;6189;52.526;13.390;2022-10-16T05:42:47;15.80;99.90
12254;DHT22;6189;52.526;13.390;2022-10-16T05:45:32;15.80;99.90
12254;DHT22;6189;52.526;13.390;2022-10-16T05:48:17;15.80;99.90
12254;DHT22;6189;52.526;13.390;2022-10-16T05:51:05;15.80;99.90
12254;DHT22;6189;52.526;13.390;2022-10-16T05:53:52;15.80;99.90
12254;DHT22;6189;52.526;13.390;2022-10-16T05:56:38;15.80;99.90
12254;DHT22;6189;52.526;13.390;2022-10-16T05:59:23;15.80;99.90
12254;DHT22;6189;52.526;13.390;2022-10-16T06:02:12;15.80;99.90
12254;DHT22;6189;52.526;13.390;2022-10-16T06:04:57;15.90;99.90
12254;DHT22;6189;52.526;13.390;2022-10-16T06:07:42;15.90;99.90
12254;DHT22;6189;52.526;13.390;2022-10-16T06:10:29;16.00;99.90
12254;DHT22;6189;52.526;13.390;2022-10-16T06:13:15;16.00;99.90
12254;DHT22;6189;52.526;13.390;2022-10-16T06:16:01;16.00;99.90
12254;DHT22;6189;52.526;13.390;2022-10-16T06:18:47;16.00;99.90
12254;DHT22;6189;52.526;13.390;2022-10-16T06:21:33;16.00;99.90
12254;DHT22;6189;52.526;13.390;2022-10-16T06:24:19;16.00;99.90
12254;DHT22;6189;52.526;13.390;2022-10-16T06:27:06;16.00;99.90
12254;DHT22;6189;52.526;13.390;2022-10-16T06:29:51;16.00;99.90
12254;DHT22;6189;52.526;13.390;2022-10-16T06:32:37;16.10;99.90
12254;DHT22;6189;52.526;13.390;2022-10-16T06:35:22;16.10;99.90
12254;DHT22;6189;52.526;13.390;2022-10-16T06:38:07;16.00;99.90
12254;DHT22;6189;52.526;13.390;2022-10-16T06:40:53;16.00;99.90
12254;DHT22;6189;52.526;13.390;2022-10-16T06:43:40;16.00;99.90
12254;DHT22;6189;52.526;13.390;2022-10-16T06:46:26;16.00;99.90
12254;DHT22;6189;52.526;13.390;2022-10-16T06:49:12;16.00;99.90
12254;DHT22;6189;52.526;13.390;2022-10-16T06:52:05;16.00;99.90
12254;DHT22;6189;52.526;13.390;2022-10-16T06:54:51;16.00;99.90
12254;DHT22;6189;52.526;13.390;2022-10-16T06:57:36;16.00;99.90
12254;DHT22;6189;52.526;13.390;2022-10-16T07:00:23;16.00;99.90
12254;DHT22;6189;52.526;13.390;2022-10-16T07:03:08;16.00;99.90
12254;DHT22;6189;52.526;13.390;2022-10-16T07:05:54;16.00;99.90
12254;DHT22;6189;52.526;13.390;2022-10-16T07:08:42;16.00;99.90
12254;DHT22;6189;52.526;13.390;2022-10-16T07:11:27;16.00;99.90
12254;DHT22;6189;52.526;13.390;2022-10-16T07:14:16;16.10;99.90
12254;DHT22;6189;52.526;13.390;2022-10-16T07:17:03;16.10;99.90
12254;DHT22;6189;52.526;13.390;2022-10-16T07:19:48;16.20;99.90
12254;DHT22;6189;52.526;13.390;2022-10-16T07:22:36;16.20;99.90
12254;DHT22;6189;52.526;13.390;2022-10-16T07:25:22;16.20;99.90
12254;DHT22;6189;52.526;13.390;2022-10-16T07:28:07;16.20;99.90
12254;DHT22;6189;52.526;13.390;2022-10-16T07:30:53;16.20;99.90
12254;DHT22;6189;52.526;13.390;2022-10-16T07:33:41;16.30;99.90
12254;DHT22;6189;52.526;13.390;2022-10-16T07:36:28;16.40;99.90
12254;DHT22;6189;52.526;13.390;2022-10-16T07:39:13;16.40;99.90
12254;DHT22;6189;52.526;13.390;2022-10-16T07:41:59;16.40;99.90
12254;DHT22;6189;52.526;13.390;2022-10-16T07:44:44;16.50;99.90
12254;DHT22;6189;52.526;13.390;2022-10-16T07:47:30;16.50;99.90
12254;DHT22;6189;52.526;13.390;2022-10-16T07:50:16;16.60;99.90
12254;DHT22;6189;52.526;13.390;2022-10-16T07:53:02;16.60;99.90
12254;DHT22;6189;52.526;13.390;2022-10-16T07:55:47;16.60;99.90
12254;DHT22;6189;52.526;13.390;2022-10-16T07:58:34;16.60;99.90
12254;DHT22;6189;52.526;13.390;2022-10-16T08:01:21;16.60;99.90
12254;DHT22;6189;52.526;13.390;2022-10-16T08:04:06;16.60;99.90
12254;DHT22;6189;52.526;13.390;2022-10-16T08:06:54;16.60;99.90
12254;DHT22;6189;52.526;13.390;2022-10-16T08:09:39;16.70;99.90
12254;DHT22;6189;52.526;13.390;2022-10-16T08:12:25;16.70;99.90
12254;DHT22;6189;52.526;13.390;2022-10-16T08:15:10;16.70;99.90
12254;DHT22;6189;52.526;13.390;2022-10-16T08:17:57;16.70;99.90
12254;DHT22;6189;52.526;13.390;2022-10-16T08:20:43;16.80;99.90
12254;DHT22;6189;52.526;13.390;2022-10-16T08:23:30;16.80;99.90
12254;DHT22;6189;52.526;13.390;2022-10-16T08:26:16;16.80;99.90
12254;DHT22;6189;52.526;13.390;2022-10-16T08:29:01;16.80;99.90
12254;DHT22;6189;52.526;13.390;2022-10-16T08:31:47;16.90;99.90
12254;DHT22;6189;52.526;13.390;2022-10-16T08:34:32;16.90;99.90
12254;DHT22;6189;52.526;13.390;2022-10-16T08:37:17;17.00;99.90
12254;DHT22;6189;52.526;13.390;2022-10-16T08:40:06;17.00;99.90
12254;DHT22;6189;52.526;13.390;2022-10-16T08:46:28;17.10;99.90
12254;DHT22;6189;52.526;13.390;2022-10-16T08:49:16;17.10;99.90
12254;DHT22;6189;52.526;13.390;2022-10-16T08:52:03;17.10;99.90
12254;DHT22;6189;52.526;13.390;2022-10-16T08:54:50;17.20;99.90
12254;DHT22;6189;52.526;13.390;2022-10-16T08:57:39;17.20;99.90
12254;DHT22;6189;52.526;13.390;2022-10-16T09:00:25;17.30;99.90
12254;DHT22;6189;52.526;13.390;2022-10-16T09:03:17;17.30;99.90
12254;DHT22;6189;52.526;13.390;2022-10-16T09:06:26;17.30;99.90
12254;DHT22;6189;52.526;13.390;2022-10-16T09:09:31;17.30;99.90
12254;DHT22;6189;52.526;13.390;2022-10-16T09:12:26;17.40;99.90
12254;DHT22;6189;52.526;13.390;2022-10-16T09:15:23;17.40;99.90
12254;DHT22;6189;52.526;13.390;2022-10-16T09:18:18;17.50;99.90
12254;DHT22;6189;52.526;13.390;2022-10-16T09:21:10;17.60;99.90
12254;DHT22;6189;52.526;13.390;2022-10-16T09:24:04;17.60;99.90
12254;DHT22;6189;52.526;13.390;2022-10-16T09:26:53;17.70;99.90
12254;DHT22;6189;52.526;13.390;2022-10-16T09:29:39;17.70;99.90
12254;DHT22;6189;52.526;13.390;2022-10-16T09:32:28;17.80;99.90
12254;DHT22;6189;52.526;13.390;2022-10-16T09:35:16;17.90;99.90
12254;DHT22;6189;52.526;13.390;2022-10-16T09:38:02;17.90;99.90
12254;DHT22;6189;52.526;13.390;2022-10-16T09:40:48;17.90;99.90
12254;DHT22;6189;52.526;13.390;2022-10-16T09:43:36;18.00;99.90
12254;DHT22;6189;52.526;13.390;2022-10-16T09:46:28;18.10;99.90
12254;DHT22;6189;52.526;13.390;2022-10-16T09:49:23;18.20;99.90
12254;DHT22;6189;52.526;13.390;2022-10-16T09:52:12;18.30;99.90
12254;DHT22;6189;52.526;13.390;2022-10-16T09:55:00;18.30;99.90
12254;DHT22;6189;52.526;13.390;2022-10-16T09:57:49;18.30;99.90
12254;DHT22;6189;52.526;13.390;2022-10-16T10:00:34;18.30;99.90
12254;DHT22;6189;52.526;13.390;2022-10-16T10:03:34;18.30;99.90
12254;DHT22;6189;52.526;13.390;2022-10-16T10:06:26;18.40;99.90
12254;DHT22;6189;52.526;13.390;2022-10-16T10:09:20;18.40;99.90
12254;DHT22;6189;52.526;13.390;2022-10-16T10:12:17;18.50;99.90
12254;DHT22;6189;52.526;13.390;2022-10-16T10:15:06;18.50;99.90
12254;DHT22;6189;52.526;13.390;2022-10-16T10:17:53;18.60;99.90
12254;DHT22;6189;52.526;13.390;2022-10-16T10:20:39;18.60;99.90
12254;DHT22;6189;52.526;13.390;2022-10-16T10:23:28;18.60;99.90
12254;DHT22;6189;52.526;13.390;2022-10-16T10:26:17;18.70;99.90
12254;DHT22;6189;52.526;13.390;2022-10-16T10:29:07;18.70;99.90
12254;DHT22;6189;52.526;13.390;2022-10-16T10:32:02;18.60;99.90
12254;DHT22;6189;52.526;13.390;2022-10-16T10:35:07;18.70;99.90
12254;DHT22;6189;52.526;13.390;2022-10-16T10:38:07;18.70;99.90
12254;DHT22;6189;52.526;13.390;2022-10-16T10:41:05;18.70;99.90
12254;DHT22;6189;52.526;13.390;2022-10-16T10:44:05;18.80;99.90
12254;DHT22;6189;52.526;13.390;2022-10-16T10:46:56;18.80;99.90
12254;DHT22;6189;52.526;13.390;2022-10-16T10:49:55;18.80;99.90
12254;DHT22;6189;52.526;13.390;2022-10-16T10:52:51;18.90;99.90
12254;DHT22;6189;52.526;13.390;2022-10-16T10:55:42;18.90;99.90
12254;DHT22;6189;52.526;13.390;2022-10-16T10:58:48;18.90;99.90
12254;DHT22;6189;52.526;13.390;2022-10-16T11:01:40;18.90;99.90
12254;DHT22;6189;52.526;13.390;2022-10-16T11:05:03;19.00;99.90
12254;DHT22;6189;52.526;13.390;2022-10-16T11:07:58;19.00;99.90
12254;DHT22;6189;52.526;13.390;2022-10-16T11:10:50;19.10;99.90
12254;DHT22;6189;52.526;13.390;2022-10-16T11:13:42;19.20;99.90
12254;DHT22;6189;52.526;13.390;2022-10-16T11:16:31;19.30;99.90
12254;DHT22;6189;52.526;13.390;2022-10-16T11:19:25;19.30;99.90
12254;DHT22;6189;52.526;13.390;2022-10-16T11:22:18;19.40;99.90
12254;DHT22;6189;52.526;13.390;2022-10-16T11:25:12;19.40;99.90
12254;DHT22;6189;52.526;13.390;2022-10-16T11:28:03;19.40;99.90
12254;DHT22;6189;52.526;13.390;2022-10-16T11:30:55;19.40;99.90
12254;DHT22;6189;52.526;13.390;2022-10-16T11:33:45;19.50;99.90
12254;DHT22;6189;52.526;13.390;2022-10-16T11:36:35;19.50;99.90
12254;DHT22;6189;52.526;13.390;2022-10-16T11:39:24;19.60;99.90
12254;DHT22;6189;52.526;13.390;2022-10-16T11:42:18;19.60;99.90
12254;DHT22;6189;52.526;13.390;2022-10-16T11:45:13;19.60;99.90
12254;DHT22;6189;52.526;13.390;2022-10-16T11:48:08;19.60;99.90
12254;DHT22;6189;52.526;13.390;2022-10-16T11:51:02;19.60;99.90
12254;DHT22;6189;52.526;13.390;2022-10-16T11:53:55;19.60;99.90
12254;DHT22;6189;52.526;13.390;2022-10-16T11:56:43;19.50;99.90
12254;DHT22;6189;52.526;13.390;2022-10-16T11:59:35;19.50;99.90
12254;DHT22;6189;52.526;13.390;2022-10-16T12:02:35;19.40;99.90
12254;DHT22;6189;52.526;13.390;2022-10-16T12:05:35;19.50;99.90
12254;DHT22;6189;52.526;13.390;2022-10-16T12:08:24;19.50;99.90
12254;DHT22;6189;52.526;13.390;2022-10-16T12:11:23;19.50;99.90
12254;DHT22;6189;52.526;13.390;2022-10-16T12:14:20;19.40;99.90
12254;DHT22;6189;52.526;13.390;2022-10-16T12:17:27;19.50;99.90
12254;DHT22;6189;52.526;13.390;2022-10-16T12:20:25;19.60;99.90
12254;DHT22;6189;52.526;13.390;2022-10-16T12:23:20;19.60;99.90
12254;DHT22;6189;52.526;13.390;2022-10-16T12:26:06;19.60;99.90
12254;DHT22;6189;52.526;13.390;2022-10-16T12:28:51;19.70;99.90
12254;DHT22;6189;52.526;13.390;2022-10-16T12:31:43;19.70;99.90
12254;DHT22;6189;52.526;13.390;2022-10-16T12:34:37;19.70;99.90
12254;DHT22;6189;52.526;13.390;2022-10-16T12:37:25;19.70;99.90
12254;DHT22;6189;52.526;13.390;2022-10-16T12:40:25;19.80;99.90
12254;DHT22;6189;52.526;13.390;2022-10-16T12:43:36;19.80;99.90
12254;DHT22;6189;52.526;13.390;2022-10-16T12:46:40;19.80;99.90
12254;DHT22;6189;52.526;13.390;2022-10-16T12:49:36;19.80;99.90
12254;DHT22;6189;52.526;13.390;2022-10-16T12:52:26;19.80;99.90
12254;DHT22;6189;52.526;13.390;2022-10-16T12:55:17;19.80;99.90
12254;DHT22;6189;52.526;13.390;2022-10-16T12:58:17;19.80;99.90
12254;DHT22;6189;52.526;13.390;2022-10-16T13:01:12;19.90;99.90
12254;DHT22;6189;52.526;13.390;2022-10-16T13:04:20;19.90;99.90
12254;DHT22;6189;52.526;13.390;2022-10-16T13:07:30;19.90;99.90
12254;DHT22;6189;52.526;13.390;2022-10-16T13:10:25;19.90;99.90
12254;DHT22;6189;52.526;13.390;2022-10-16T13:13:31;19.90;99.90
12254;DHT22;6189;52.526;13.390;2022-10-16T13:16:29;19.90;99.90
12254;DHT22;6189;52.526;13.390;2022-10-16T13:19:24;20.00;99.90
12254;DHT22;6189;52.526;13.390;2022-10-16T13:22:20;20.00;99.90
12254;DHT22;6189;52.526;13.390;2022-10-16T13:25:19;20.10;99.90
12254;DHT22;6189;52.526;13.390;2022-10-16T13:28:09;20.10;99.90
12254;DHT22;6189;52.526;13.390;2022-10-16T13:30:57;20.10;99.90
12254;DHT22;6189;52.526;13.390;2022-10-16T13:33:46;20.10;99.90
12254;DHT22;6189;52.526;13.390;2022-10-16T13:36:42;20.00;99.90
12254;DHT22;6189;52.526;13.390;2022-10-16T13:39:29;20.00;99.90
12254;DHT22;6189;52.526;13.390;2022-10-16T13:42:22;20.00;99.90
12254;DHT22;6189;52.526;13.390;2022-10-16T13:45:19;19.90;99.90
12254;DHT22;6189;52.526;13.390;2022-10-16T13:48:08;19.90;99.90
12254;DHT22;6189;52.526;13.390;2022-10-16T13:51:00;20.00;99.90
12254;DHT22;6189;52.526;13.390;2022-10-16T13:53:46;20.00;99.90
12254;DHT22;6189;52.526;13.390;2022-10-16T13:56:32;20.00;99.90
12254;DHT22;6189;52.526;13.390;2022-10-16T13:59:25;19.90;99.90
12254;DHT22;6189;52.526;13.390;2022-10-16T14:02:21;19.90;99.90
12254;DHT22;6189;52.526;13.390;2022-10-16T14:05:09;20.00;99.90
12254;DHT22;6189;52.526;13.390;2022-10-16T14:07:56;19.90;99.90
12254;DHT22;6189;52.526;13.390;2022-10-16T14:10:42;19.90;99.90
12254;DHT22;6189;52.526;13.390;2022-10-16T14:13:31;19.90;99.90
12254;DHT22;6189;52.526;13.390;2022-10-16T14:16:20;19.90;99.90
12254;DHT22;6189;52.526;13.390;2022-10-16T14:19:18;19.90;99.90
12254;DHT22;6189;52.526;13.390;2022-10-16T14:22:22;19.90;99.90
12254;DHT22;6189;52.526;13.390;2022-10-16T14:25:26;19.90;99.90
12254;DHT22;6189;52.526;13.390;2022-10-16T14:28:16;19.80;99.90
12254;DHT22;6189;52.526;13.390;2022-10-16T14:31:24;19.80;99.90
12254;DHT22;6189;52.526;13.390;2022-10-16T14:34:25;19.80;99.90
12254;DHT22;6189;52.526;13.390;2022-10-16T14:37:21;19.80;99.90
12254;DHT22;6189;52.526;13.390;2022-10-16T14:40:14;19.80;99.90
12254;DHT22;6189;52.526;13.390;2022-10-16T14:43:01;19.80;99.90
12254;DHT22;6189;52.526;13.390;2022-10-16T14:45:50;19.70;99.90
12254;DHT22;6189;52.526;13.390;2022-10-16T14:48:40;19.70;99.90
12254;DHT22;6189;52.526;13.390;2022-10-16T14:51:27;19.70;99.90
12254;DHT22;6189;52.526;13.390;2022-10-16T14:54:14;19.70;99.90
12254;DHT22;6189;52.526;13.390;2022-10-16T14:57:00;19.70;99.90
12254;DHT22;6189;52.526;13.390;2022-10-16T14:59:45;19.70;99.90
12254;DHT22;6189;52.526;13.390;2022-10-16T15:02:33;19.70;99.90
12254;DHT22;6189;52.526;13.390;2022-10-16T15:05:21;19.80;99.90
12254;DHT22;6189;52.526;13.390;2022-10-16T15:08:09;19.80;99.90
12254;DHT22;6189;52.526;13.390;2022-10-16T15:10:55;19.80;99.90
12254;DHT22;6189;52.526;13.390;2022-10-16T15:13:40;19.80;99.90
12254;DHT22;6189;52.526;13.390;2022-10-16T15:16:26;19.90;99.90
12254;DHT22;6189;52.526;13.390;2022-10-16T15:19:11;19.80;99.90
12254;DHT22;6189;52.526;13.390;2022-10-16T15:21:57;19.80;99.90
12254;DHT22;6189;52.526;13.390;2022-10-16T15:24:44;19.80;99.90
12254;DHT22;6189;52.526;13.390;2022-10-16T15:27:29;19.80;99.90
12254;DHT22;6189;52.526;13.390;2022-10-16T15:30:18;19.80;99.90
12254;DHT22;6189;52.526;13.390;2022-10-16T15:33:05;19.80;99.90
12254;DHT22;6189;52.526;13.390;2022-10-16T15:35:55;19.70;99.90
12254;DHT22;6189;52.526;13.390;2022-10-16T15:38:41;19.80;99.90
12254;DHT22;6189;52.526;13.390;2022-10-16T15:41:28;19.70;99.90
12254;DHT22;6189;52.526;13.390;2022-10-16T15:44:13;19.70;99.90
12254;DHT22;6189;52.526;13.390;2022-10-16T15:46:59;19.70;99.90
12254;DHT22;6189;52.526;13.390;2022-10-16T15:49:45;19.70;99.90
12254;DHT22;6189;52.526;13.390;2022-10-16T15:52:30;19.70;99.90
12254;DHT22;6189;52.526;13.390;2022-10-16T15:55:17;19.60;99.90
12254;DHT22;6189;52.526;13.390;2022-10-16T15:58:04;19.60;99.90
12254;DHT22;6189;52.526;13.390;2022-10-16T16:00:54;19.60;99.90
12254;DHT22;6189;52.526;13.390;2022-10-16T16:03:40;19.50;99.90
12254;DHT22;6189;52.526;13.390;2022-10-16T16:06:25;19.50;99.90
12254;DHT22;6189;52.526;13.390;2022-10-16T16:09:11;19.50;99.90
12254;DHT22;6189;52.526;13.390;2022-10-16T16:11:56;19.50;99.90
12254;DHT22;6189;52.526;13.390;2022-10-16T16:14:46;19.50;99.90
12254;DHT22;6189;52.526;13.390;2022-10-16T16:17:34;19.50;99.90
12254;DHT22;6189;52.526;13.390;2022-10-16T16:20:20;19.40;99.90
12254;DHT22;6189;52.526;13.390;2022-10-16T16:23:05;19.30;99.90
12254;DHT22;6189;52.526;13.390;2022-10-16T16:26:06;19.20;99.90
12254;DHT22;6189;52.526;13.390;2022-10-16T16:28:52;19.30;99.90
12254;DHT22;6189;52.526;13.390;2022-10-16T16:31:41;19.20;99.90
12254;DHT22;6189;52.526;13.390;2022-10-16T16:34:27;19.20;99.90
12254;DHT22;6189;52.526;13.390;2022-10-16T16:37:13;19.30;99.90
12254;DHT22;6189;52.526;13.390;2022-10-16T16:39:59;19.20;99.90
12254;DHT22;6189;52.526;13.390;2022-10-16T16:42:47;19.20;99.90
12254;DHT22;6189;52.526;13.390;2022-10-16T16:45:35;19.20;99.90
12254;DHT22;6189;52.526;13.390;2022-10-16T16:48:22;19.10;99.90
12254;DHT22;6189;52.526;13.390;2022-10-16T16:51:09;19.00;99.90
12254;DHT22;6189;52.526;13.390;2022-10-16T16:53:59;19.00;99.90
12254;DHT22;6189;52.526;13.390;2022-10-16T16:56:45;18.90;99.90
12254;DHT22;6189;52.526;13.390;2022-10-16T16:59:30;18.90;99.90
12254;DHT22;6189;52.526;13.390;2022-10-16T17:02:16;18.80;99.90
12254;DHT22;6189;52.526;13.390;2022-10-16T17:05:03;18.70;99.90
12254;DHT22;6189;52.526;13.390;2022-10-16T17:07:49;18.60;99.90
12254;DHT22;6189;52.526;13.390;2022-10-16T17:10:34;18.60;99.90
12254;DHT22;6189;52.526;13.390;2022-10-16T17:13:30;18.50;99.90
12254;DHT22;6189;52.526;13.390;2022-10-16T17:16:18;18.50;99.90
12254;DHT22;6189;52.526;13.390;2022-10-16T17:19:06;18.40;99.90
12254;DHT22;6189;52.526;13.390;2022-10-16T17:21:52;18.40;99.90
12254;DHT22;6189;52.526;13.390;2022-10-16T17:24:38;18.30;99.90
12254;DHT22;6189;52.526;13.390;2022-10-16T17:27:23;18.30;99.90
12254;DHT22;6189;52.526;13.390;2022-10-16T17:30:09;18.20;99.90
12254;DHT22;6189;52.526;13.390;2022-10-16T17:32:55;18.20;99.90
12254;DHT22;6189;52.526;13.390;2022-10-16T17:35:42;18.10;99.90
12254;DHT22;6189;52.526;13.390;2022-10-16T17:38:29;18.10;99.90
12254;DHT22;6189;52.526;13.390;2022-10-16T17:41:17;18.10;99.90
12254;DHT22;6189;52.526;13.390;2022-10-16T17:44:03;18.10;99.90
12254;DHT22;6189;52.526;13.390;2022-10-16T17:46:50;18.00;99.90
12254;DHT22;6189;52.526;13.390;2022-10-16T17:49:36;18.00;99.90
12254;DHT22;6189;52.526;13.390;2022-10-16T17:52:22;18.00;99.90